Time;durP1;ratioP1;P1;durP2;ratioP2;P2;SDS_P1;SDS_P2;PMS_P1;PMS_P2;Temp;Humidity;BMP_temperature;BMP_pressure;BME280_temperature;BME280_humidity;BME280_pressure;Samples;Min_cycle;Max_cycle;Signal;HPM_P1;HPM_P2
2022/12/07 00:01:20;;;;;;;13.48;4.32;;;;;;;3.47;92.10;102059.00;4930170;29;20058;-43
2022/12/07 00:03:48;;;;;;;12.57;4.35;;;;;;;3.46;92.07;102058.22;4939243;29;20055;-42
2022/12/07 00:06:17;;;;;;;10.30;3.63;;;;;;;3.44;91.86;102054.09;4931162;29;20055;-43
2022/12/07 00:08:45;;;;;;;9.52;4.30;;;;;;;3.42;92.09;102056.25;4931215;29;20114;-47
2022/12/07 00:11:18;;;;;;;13.90;5.03;;;;;;;3.38;92.15;102055.97;4912185;29;20059;-44
2022/12/07 00:13:45;;;;;;;13.18;3.95;;;;;;;3.35;91.90;102051.03;4905315;29;20048;-45
2022/12/07 00:16:15;;;;;;;17.45;4.50;;;;;;;3.37;92.14;102048.84;4929128;29;20040;-42
2022/12/07 00:18:42;;;;;;;9.55;5.35;;;;;;;3.37;92.35;102048.03;4913593;29;20569;-43
2022/12/07 00:21:23;;;;;;;9.15;3.80;;;;;;;3.36;92.43;102049.94;4930610;29;20052;-45
2022/12/07 00:23:51;;;;;;;10.77;3.78;;;;;;;3.39;92.21;102043.94;4930506;29;20082;-44
2022/12/07 00:26:18;;;;;;;11.38;4.60;;;;;;;3.41;92.41;102041.78;4930057;29;20059;-44
2022/12/07 00:28:47;;;;;;;8.90;3.88;;;;;;;3.45;92.30;102047.50;4930416;29;20044;-47
2022/12/07 00:31:16;;;;;;;9.23;4.50;;;;;;;3.46;92.38;102041.78;4928624;29;20047;-44
2022/12/07 00:33:44;;;;;;;9.75;3.78;;;;;;;3.46;92.38;102040.97;4929765;29;20047;-49
2022/12/07 00:36:14;;;;;;;12.43;5.10;;;;;;;3.49;92.36;102034.97;4930306;29;20062;-42
2022/12/07 00:38:41;;;;;;;12.57;4.32;;;;;;;3.51;92.44;102039.06;4930481;29;20052;-42
2022/12/07 00:41:14;;;;;;;10.32;3.97;;;;;;;3.53;92.04;102036.06;4930227;29;20051;-42
2022/12/07 00:43:41;;;;;;;;;;;;;;;3.56;92.32;102041.00;4930632;29;20051;-44
2022/12/07 00:46:08;;;;;;;9.32;3.65;;;;;;;3.54;92.08;102037.72;4929837;29;19927;-46
2022/12/07 00:48:36;;;;;;;8.80;4.60;;;;;;;3.55;92.29;102039.34;4929357;29;20055;-45
2022/12/07 00:51:03;;;;;;;12.57;3.75;;;;;;;3.57;92.33;102035.25;4927528;29;20521;-46
2022/12/07 00:53:30;;;;;;;9.18;3.28;;;;;;;3.60;92.07;102037.47;4928805;29;20099;-44
2022/12/07 00:56:24;;;;;;;11.20;3.78;;;;;;;3.61;92.11;102041.03;4928505;29;20047;-44
2022/12/07 00:58:55;;;;;;;10.98;3.67;;;;;;;3.61;92.00;102038.28;4929122;29;20055;-44
2022/12/07 01:01:24;;;;;;;6.13;3.03;;;;;;;3.60;91.81;102033.91;4925845;29;20055;-45
2022/12/07 01:03:51;;;;;;;6.85;3.15;;;;;;;3.60;92.23;102033.91;4927573;29;20725;-46
2022/12/07 01:06:20;;;;;;;8.70;4.70;;;;;;;3.62;91.97;102034.47;4923435;29;20039;-45
2022/12/07 01:08:46;;;;;;;9.77;3.58;;;;;;;3.62;92.10;102035.28;4929736;29;20051;-42
2022/12/07 01:11:17;;;;;;;10.40;4.55;;;;;;;3.63;91.96;102030.63;4927612;29;20103;-42
2022/12/07 01:13:44;;;;;;;11.35;4.97;;;;;;;3.62;91.98;102029.81;4929871;29;20048;-44
2022/12/07 01:16:15;;;;;;;11.18;4.47;;;;;;;3.65;92.06;102033.94;4929579;29;20059;-42
2022/12/07 01:18:45;;;;;;;7.65;4.20;;;;;;;3.65;91.92;102033.94;4929696;29;20070;-46
2022/12/07 01:21:14;;;;;;;7.75;3.40;;;;;;;3.64;91.76;102040.50;4924891;29;20387;-44
2022/12/07 01:23:41;;;;;;;10.52;4.25;;;;;;;3.64;92.25;102037.75;4922308;29;20048;-43
2022/12/07 01:26:11;;;;;;;10.13;4.13;;;;;;;3.64;92.24;102032.28;4929719;29;20087;-44
2022/12/07 01:28:38;;;;;;;6.20;3.75;;;;;;;3.60;92.07;102023.75;4929944;29;20376;-42
2022/12/07 01:31:10;;;;;;;10.60;3.97;;;;;;;3.62;92.02;102034.47;4929705;29;20054;-42
2022/12/07 01:33:38;;;;;;;7.07;3.97;;;;;;;3.63;92.11;102022.41;4928182;29;20071;-42
2022/12/07 01:36:13;;;;;;;12.18;3.72;;;;;;;3.63;91.98;102025.97;4929238;29;20534;-43
2022/12/07 01:38:40;;;;;;;9.32;4.03;;;;;;;3.63;91.93;102022.41;4921162;29;20044;-42
2022/12/07 01:41:07;;;;;;;11.18;4.28;;;;;;;3.62;92.01;102018.03;4908381;29;20139;-42
2022/12/07 01:43:34;;;;;;;8.68;4.03;;;;;;;3.57;91.78;102012.53;4910947;29;20048;-47
2022/12/07 01:46:03;;;;;;;6.95;3.45;;;;;;;3.57;92.03;102009.81;4928503;29;20048;-42
2022/12/07 01:48:32;;;;;;;7.85;3.42;;;;;;;3.55;92.01;102007.31;4912475;29;20044;-42
2022/12/07 01:51:04;;;;;;;6.55;2.85;;;;;;;3.54;91.90;102013.91;4928311;29;21474;-43
2022/12/07 01:53:34;;;;;;;5.60;3.33;;;;;;;3.53;91.69;102005.94;4929452;29;20062;-43
2022/12/07 01:56:01;;;;;;;6.13;3.05;;;;;;;3.52;91.86;102012.53;4918292;29;20067;-42
2022/12/07 01:58:28;;;;;;;9.75;4.40;;;;;;;3.49;91.44;102010.31;4928100;29;20055;-44
2022/12/07 02:00:55;;;;;;;14.82;4.15;;;;;;;3.49;91.87;102008.41;4929115;29;20118;-44
2022/12/07 02:03:32;;;;;;;7.88;2.83;;;;;;;3.48;91.94;102011.41;4938243;29;20054;-46
2022/12/07 02:06:00;;;;;;;10.85;3.28;;;;;;;3.47;91.50;102012.47;4928252;29;20048;-42
2022/12/07 02:08:27;;;;;;;8.98;3.08;;;;;;;3.49;91.82;102004.84;4928179;29;20450;-42
2022/12/07 02:10:54;;;;;;;6.50;2.83;;;;;;;3.47;91.80;102009.75;4927589;29;20044;-45
2022/12/07 02:13:24;;;;;;;7.97;3.72;;;;;;;3.48;91.68;102005.91;4928543;29;20499;-44
2022/12/07 02:16:22;;;;;;;10.02;3.47;;;;;;;3.52;92.02;101996.09;4928616;29;20054;-44
2022/12/07 02:18:52;;;;;;;10.13;3.85;;;;;;;3.54;91.53;102015.81;4928124;29;20439;-47
2022/12/07 02:21:53;;;;;;;11.95;4.75;;;;;;;3.52;91.61;102009.78;4928405;29;20079;-45
2022/12/07 02:25:16;;;;;;;8.35;3.70;;;;;;;3.48;91.53;102004.00;4931054;29;20118;-42
2022/12/07 02:28:24;;;;;;;8.30;3.75;;;;;;;3.51;91.39;102005.38;4872941;29;20063;-44
2022/12/07 02:30:53;;;;;;;8.32;2.97;;;;;;;3.49;91.34;101996.63;4843434;29;20056;-44
2022/12/07 02:33:28;;;;;;;15.35;3.78;;;;;;;3.45;91.26;102004.53;4918886;29;20047;-45
2022/12/07 02:36:01;;;;;;;5.90;2.47;;;;;;;3.44;91.44;102004.81;4931530;29;20047;-45
2022/12/07 02:38:38;;;;;;;7.43;4.13;;;;;;;3.45;91.88;101996.34;4932932;29;20071;-43
2022/12/07 02:41:11;;;;;;;5.95;3.42;;;;;;;3.44;91.49;101988.41;4931530;29;20130;-47
2022/12/07 02:43:43;;;;;;;10.43;3.40;;;;;;;3.44;91.77;101994.66;4932111;29;20052;-42
2022/12/07 02:46:14;;;;;;;7.45;3.17;;;;;;;3.44;91.80;101991.13;4924805;29;20052;-42
2022/12/07 02:48:43;;;;;;;8.47;2.77;;;;;;;3.42;91.43;101987.81;4932534;29;20059;-43
2022/12/07 02:51:09;;;;;;;10.75;3.88;;;;;;;3.40;91.73;101995.47;4932272;29;20294;-42
2022/12/07 02:53:37;;;;;;;9.25;4.00;;;;;;;3.37;91.39;101991.38;4933046;29;20082;-44
2022/12/07 02:56:16;;;;;;;10.90;3.63;;;;;;;3.35;91.75;101990.00;4911949;29;20060;-50
2022/12/07 02:59:13;;;;;;;10.93;3.97;;;;;;;3.32;91.52;101985.88;4919867;29;20579;-44
2022/12/07 03:01:46;;;;;;;7.97;3.15;;;;;;;3.29;91.74;101985.56;4960836;23;20063;-43
2022/12/07 03:04:52;;;;;;;9.25;3.50;;;;;;;3.26;91.68;101975.97;4930909;29;20115;-43
2022/12/07 03:07:37;;;;;;;8.02;3.08;;;;;;;3.28;91.92;101978.47;4920116;29;20047;-44
2022/12/07 03:10:16;;;;;;;7.15;3.85;;;;;;;3.28;91.50;101981.22;4932008;29;20095;-46
2022/12/07 03:12:54;;;;;;;14.23;3.55;;;;;;;3.27;91.60;101976.81;4932207;29;20075;-43
2022/12/07 03:15:42;;;;;;;10.45;4.95;;;;;;;3.24;91.53;101971.88;4931956;29;20067;-46
2022/12/07 03:18:12;;;;;;;6.60;4.38;;;;;;;3.23;92.00;101975.72;4931939;29;20086;-48
2022/12/07 03:20:43;;;;;;;7.25;3.75;;;;;;;3.23;91.76;101975.72;4931447;29;20054;-43
2022/12/07 03:23:12;;;;;;;5.35;2.97;;;;;;;3.23;91.79;101970.25;4932511;29;20051;-44
2022/12/07 03:25:45;;;;;;;7.03;3.20;;;;;;;3.24;91.87;101966.41;4931869;29;20107;-42
2022/12/07 03:28:17;;;;;;;11.93;3.55;;;;;;;3.26;91.84;101975.16;4932174;29;20188;-42
2022/12/07 03:30:49;;;;;;;8.10;3.70;;;;;;;3.26;91.77;101961.47;4930354;29;20059;-49
2022/12/07 03:33:20;;;;;;;9.70;3.00;;;;;;;3.26;91.36;101969.69;4931764;29;20159;-46
2022/12/07 03:36:02;;;;;;;11.70;3.90;;;;;;;3.26;91.58;101964.22;4904818;29;20060;-42
2022/12/07 03:38:45;;;;;;;5.35;2.85;;;;;;;3.25;91.91;101959.84;4927878;29;20131;-44
2022/12/07 03:41:20;;;;;;;11.05;4.60;;;;;;;3.26;91.54;101961.47;4914374;29;20055;-42
2022/12/07 03:43:47;;;;;;;10.38;4.60;;;;;;;3.26;91.57;101958.72;4899490;29;20051;-42
2022/12/07 03:46:44;;;;;;;6.55;3.80;;;;;;;3.26;91.47;101958.72;4914093;29;20532;-44
2022/12/07 03:49:18;;;;;;;9.25;3.20;;;;;;;3.27;91.69;101954.91;4914261;29;20522;-42
2022/12/07 03:52:04;;;;;;;10.98;4.30;;;;;;;3.25;91.69;101960.66;4930910;29;21187;-45
2022/12/07 03:54:37;;;;;;;6.97;3.15;;;;;;;3.26;91.54;101956.81;4930981;29;20138;-46
2022/12/07 03:57:06;;;;;;;7.53;3.45;;;;;;;3.27;91.43;101953.00;4931076;29;20130;-42
2022/12/07 03:59:33;;;;;;;8.32;3.88;;;;;;;3.27;91.60;101949.44;4931320;29;20106;-43
2022/12/07 04:02:05;;;;;;;6.18;3.55;;;;;;;3.28;91.57;101948.38;4929866;29;20100;-42
2022/12/07 04:04:34;;;;;;;5.82;3.60;;;;;;;3.28;91.73;101945.63;4931158;29;20102;-44
2022/12/07 04:07:02;;;;;;;9.77;4.15;;;;;;;3.27;91.41;101938.50;4930815;29;20055;-47
2022/12/07 04:09:29;;;;;;;16.38;3.80;;;;;;;3.26;91.58;101942.31;4930610;29;20052;-44
2022/12/07 04:11:56;;;;;;;10.45;4.88;;;;;;;3.23;91.64;101937.41;4930838;29;20039;-44
2022/12/07 04:14:22;;;;;;;7.13;2.92;;;;;;;3.20;91.32;101937.94;4931266;29;20043;-43
2022/12/07 04:16:51;;;;;;;8.73;2.72;;;;;;;3.18;91.54;101940.13;4930575;29;20051;-44
2022/12/07 04:19:20;;;;;;;6.25;2.88;;;;;;;3.17;91.21;101943.94;4930430;29;20058;-44
2022/12/07 04:21:47;;;;;;;8.57;3.65;;;;;;;3.15;91.29;101935.97;4930685;29;20047;-42
2022/12/07 04:24:15;;;;;;;10.50;3.55;;;;;;;3.14;91.54;101928.03;4930878;29;20659;-43
2022/12/07 04:26:48;;;;;;;8.15;3.22;;;;;;;3.13;91.14;101929.13;4930381;29;20056;-46
2022/12/07 04:29:15;;;;;;;6.00;3.08;;;;;;;3.16;91.44;101925.84;4930261;29;20044;-43
2022/12/07 04:31:43;;;;;;;8.90;4.32;;;;;;;3.12;91.43;101919.28;4929097;29;20060;-43
2022/12/07 04:34:10;;;;;;;5.50;2.80;;;;;;;3.11;91.64;101918.47;4930571;29;20119;-42
2022/12/07 04:36:38;;;;;;;7.53;4.60;;;;;;;3.09;91.36;101920.66;4930168;29;20102;-47
2022/12/07 04:39:06;;;;;;;7.20;2.75;;;;;;;3.07;91.56;101918.16;4929787;29;20410;-43
2022/12/07 04:41:33;;;;;;;10.95;3.20;;;;;;;3.05;91.46;101917.59;4930291;29;20664;-45
2022/12/07 04:44:03;;;;;;;5.18;2.88;;;;;;;3.05;91.51;101922.25;4930275;29;20063;-46
2022/12/07 04:46:31;;;;;;;6.88;3.38;;;;;;;3.05;91.60;101919.50;4929131;29;20486;-43
2022/12/07 04:48:58;;;;;;;9.13;3.70;;;;;;;3.01;91.43;101918.41;4930229;29;20091;-47
2022/12/07 04:51:28;;;;;;;8.93;3.63;;;;;;;2.99;91.26;101915.94;4930046;29;20044;-41
2022/12/07 04:53:55;;;;;;;7.15;3.05;;;;;;;2.97;91.00;101918.13;4930680;29;20386;-41
2022/12/07 04:56:23;;;;;;;9.73;3.35;;;;;;;2.96;91.45;101900.06;4930617;29;20094;-44
2022/12/07 04:58:51;;;;;;;3.88;2.63;;;;;;;2.93;91.08;101911.53;4930058;29;20565;-42
2022/12/07 05:01:18;;;;;;;6.70;3.28;;;;;;;2.91;91.08;101913.69;4910491;29;20564;-41
2022/12/07 05:03:45;;;;;;;13.07;3.47;;;;;;;2.89;90.89;101906.84;4910649;29;20052;-42
2022/12/07 05:06:13;;;;;;;6.30;2.88;;;;;;;2.87;91.02;101912.59;4930101;29;20666;-44
2022/12/07 05:08:40;;;;;;;7.53;3.30;;;;;;;2.87;91.10;101917.25;4929607;29;20486;-42
2022/12/07 05:11:07;;;;;;;8.73;3.70;;;;;;;2.86;91.21;101910.94;4929670;29;20052;-50
2022/12/07 05:13:35;;;;;;;7.32;4.18;;;;;;;2.88;90.82;101913.44;4929946;29;20105;-41
2022/12/07 05:16:02;;;;;;;7.00;3.38;;;;;;;2.89;90.81;101913.16;4930060;29;20126;-43
2022/12/07 05:18:29;;;;;;;4.88;3.00;;;;;;;2.90;90.77;101917.53;4912083;29;20051;-43
2022/12/07 05:20:56;;;;;;;7.35;3.38;;;;;;;2.90;91.12;101917.53;4929549;29;20044;-43
2022/12/07 05:23:22;;;;;;;9.07;3.80;;;;;;;2.91;90.82;101908.22;4930059;29;20044;-43
2022/12/07 05:25:49;;;;;;;8.45;3.95;;;;;;;2.91;91.03;101919.16;4929775;29;20051;-42
2022/12/07 05:28:16;;;;;;;7.65;4.78;;;;;;;2.92;90.81;101915.34;4929261;29;20071;-46
2022/12/07 05:30:43;;;;;;;7.07;3.47;;;;;;;2.92;91.19;101920.81;4929248;29;20059;-42
2022/12/07 05:33:09;;;;;;;11.35;4.30;;;;;;;2.91;91.08;101919.16;4929743;29;20067;-47
2022/12/07 05:35:37;;;;;;;6.60;2.97;;;;;;;2.89;90.63;101918.63;4929382;29;20062;-44
2022/12/07 05:38:04;;;;;;;10.25;4.00;;;;;;;2.87;90.62;101920.81;4929712;29;20060;-41
2022/12/07 05:40:31;;;;;;;16.00;3.75;;;;;;;2.88;90.99;101919.72;4929537;29;20048;-47
2022/12/07 05:42:57;;;;;;;6.28;2.70;;;;;;;2.86;91.07;101921.88;4929148;29;20044;-41
2022/12/07 05:45:30;;;;;;;10.52;3.88;;;;;;;2.87;91.06;101907.13;4929450;29;20130;-42
2022/12/07 05:47:57;;;;;;;5.75;2.83;;;;;;;2.84;90.69;101918.59;4929555;29;20056;-43
2022/12/07 05:50:24;;;;;;;14.55;4.30;;;;;;;2.86;90.82;101915.63;4901277;29;20497;-42
2022/12/07 05:52:50;;;;;;;8.65;3.58;;;;;;;2.89;91.16;101915.06;4929102;29;20051;-41
2022/12/07 05:55:17;;;;;;;8.15;3.70;;;;;;;2.90;90.82;101912.06;4929233;29;20050;-46
2022/12/07 05:59:22;;;;;;;6.05;2.97;;;;;;;2.89;90.88;101913.16;4930021;29;20048;-45
2022/12/07 06:00:31;;;;;;;8.23;3.25;;;;;;;2.92;91.50;101912.63;4921553;29;20051;-41
2022/12/07 06:02:58;;;;;;;4.95;3.03;;;;;;;2.94;91.12;101918.66;4932862;29;20056;-42
2022/12/07 06:05:25;;;;;;;11.55;3.35;;;;;;;2.94;90.88;101915.91;4933090;29;20047;-44
2022/12/07 06:07:51;;;;;;;8.52;3.42;;;;;;;2.93;90.88;101914.28;4932760;29;20052;-43
2022/12/07 06:10:18;;;;;;;9.13;4.25;;;;;;;2.94;90.79;101913.16;4932603;29;20048;-44
2022/12/07 06:12:46;;;;;;;6.43;3.17;;;;;;;2.95;91.20;101908.53;4933397;29;20048;-43
2022/12/07 06:15:13;;;;;;;11.38;3.03;;;;;;;2.95;90.88;101908.53;4932847;29;20060;-44
2022/12/07 06:17:39;;;;;;;5.50;2.72;;;;;;;2.93;90.74;101905.25;4932916;29;20054;-41
2022/12/07 06:20:06;;;;;;;8.13;3.53;;;;;;;2.96;91.13;101900.06;4932304;29;20502;-41
2022/12/07 06:22:33;;;;;;;12.82;3.53;;;;;;;2.94;90.73;101902.22;4932731;29;20044;-42
2022/12/07 06:25:01;;;;;;;7.20;3.15;;;;;;;2.95;91.14;101905.78;4930275;29;20055;-46
2022/12/07 06:27:35;;;;;;;7.60;3.90;;;;;;;2.96;90.69;101894.59;4930832;29;20129;-43
2022/12/07 06:30:06;;;;;;;9.13;4.05;;;;;;;2.91;90.94;101896.50;4932149;29;20028;-41
2022/12/07 06:32:33;;;;;;;7.32;3.42;;;;;;;2.88;90.57;101897.84;4911565;29;20147;-43
2022/12/07 06:35:00;;;;;;;6.32;2.95;;;;;;;2.86;90.99;101900.00;4932889;29;20585;-47
2022/12/07 06:37:26;;;;;;;7.25;3.22;;;;;;;2.81;90.85;101893.69;4932644;29;20051;-42
2022/12/07 06:39:53;;;;;;;7.40;3.35;;;;;;;2.75;90.85;101903.78;4932788;29;20067;-44
2022/12/07 06:42:20;;;;;;;5.60;3.38;;;;;;;2.73;90.86;101900.47;4932783;29;20802;-43
2022/12/07 06:44:46;;;;;;;11.00;3.47;;;;;;;2.75;91.37;101895.59;4932444;29;20039;-43
2022/12/07 06:47:13;;;;;;;8.70;3.20;;;;;;;2.71;90.92;101891.72;4932611;29;20052;-41
2022/12/07 06:50:00;;;;;;;9.15;3.20;;;;;;;2.71;91.05;101897.19;4931916;29;20040;-43
2022/12/07 06:52:27;;;;;;;5.28;2.78;;;;;;;2.66;90.94;101894.44;4932707;29;20052;-41
2022/12/07 06:54:54;;;;;;;7.80;3.60;;;;;;;2.61;91.09;101891.69;4930960;29;20155;-47
2022/12/07 06:57:20;;;;;;;7.70;3.40;;;;;;;2.56;90.91;101891.66;4931805;29;20039;-42
2022/12/07 06:59:47;;;;;;;6.85;3.13;;;;;;;2.54;91.02;101891.09;4931378;29;20054;-41
2022/12/07 07:02:14;;;;;;;7.80;3.70;;;;;;;2.52;90.96;101893.25;4931709;29;20071;-41
2022/12/07 07:04:40;;;;;;;8.40;3.60;;;;;;;2.51;91.15;101896.25;4931846;29;20510;-41
2022/12/07 07:07:07;;;;;;;10.60;4.28;;;;;;;2.45;90.74;101898.13;4918817;29;20470;-42
2022/12/07 07:09:34;;;;;;;11.50;5.57;;;;;;;2.43;90.67;101895.66;4931533;29;20051;-44
2022/12/07 07:12:00;;;;;;;14.57;4.38;;;;;;;2.41;90.98;101897.81;4931685;29;20052;-42
2022/12/07 07:14:27;;;;;;;9.32;5.25;;;;;;;2.39;91.46;101893.72;4932238;29;20131;-41
2022/12/07 07:16:54;;;;;;;8.98;5.68;;;;;;;2.38;91.13;101897.53;4912228;29;20052;-43
2022/12/07 07:19:21;;;;;;;17.00;5.80;;;;;;;2.35;91.21;101893.44;4931469;29;20044;-42
2022/12/07 07:21:47;;;;;;;9.30;5.68;;;;;;;2.35;91.14;101892.59;4931910;29;20055;-44
2022/12/07 07:24:14;;;;;;;9.88;6.25;;;;;;;2.37;91.26;101887.69;4931674;29;20062;-43
2022/12/07 07:26:41;;;;;;;9.85;5.60;;;;;;;2.36;91.33;101883.28;4931218;29;20576;-42
2022/12/07 07:29:07;;;;;;;13.32;4.63;;;;;;;2.36;91.05;101878.66;4931653;29;20621;-45
2022/12/07 07:31:35;;;;;;;8.38;3.92;;;;;;;2.35;91.56;101885.22;4917142;29;20466;-44
2022/12/07 07:34:02;;;;;;;14.95;4.40;;;;;;;2.35;91.19;101879.75;4931552;29;20039;-42
2022/12/07 07:36:28;;;;;;;7.68;5.20;;;;;;;2.36;91.44;101883.28;4931111;29;20409;-44
2022/12/07 07:38:55;;;;;;;6.45;3.03;;;;;;;2.37;91.35;101891.25;4931161;29;20108;-45
2022/12/07 07:41:22;;;;;;;4.90;2.65;;;;;;;2.39;91.68;101885.50;4931504;29;20044;-49
2022/12/07 07:43:48;;;;;;;6.80;2.67;;;;;;;2.41;91.66;101889.63;4931728;29;20048;-43
2022/12/07 07:46:15;;;;;;;7.07;2.78;;;;;;;2.43;91.72;101895.66;4931103;29;20044;-48
2022/12/07 07:48:42;;;;;;;6.35;2.60;;;;;;;2.45;91.60;101892.66;4931353;29;20110;-44
2022/12/07 07:51:09;;;;;;;6.47;3.13;;;;;;;2.45;91.73;101890.75;4930854;29;20052;-43
2022/12/07 07:53:36;;;;;;;7.75;2.63;;;;;;;2.45;91.34;101898.13;4931293;29;20579;-47
2022/12/07 07:56:03;;;;;;;7.10;3.60;;;;;;;2.44;91.45;101897.28;4930539;29;20043;-44
2022/12/07 07:58:30;;;;;;;6.93;3.17;;;;;;;2.42;91.49;101898.66;4930981;29;20047;-44
2022/12/07 08:00:56;;;;;;;7.25;2.97;;;;;;;2.40;91.78;101895.38;4937472;29;20815;-47
2022/12/07 08:03:23;;;;;;;5.63;2.97;;;;;;;2.40;91.75;101889.91;4930951;29;20114;-45
2022/12/07 08:05:50;;;;;;;6.75;2.95;;;;;;;2.41;91.58;101897.00;4930437;29;20051;-45
2022/12/07 08:08:17;;;;;;;6.93;2.92;;;;;;;2.40;91.74;101895.38;4930624;29;20111;-43
2022/12/07 08:10:43;;;;;;;8.60;3.13;;;;;;;2.40;91.92;101895.38;4929706;29;20058;-51
2022/12/07 08:13:10;;;;;;;6.07;2.80;;;;;;;2.41;91.71;101897.81;4927870;29;20055;-43
2022/12/07 08:15:39;;;;;;;6.88;2.63;;;;;;;2.41;91.97;101897.81;4925002;29;20040;-48
2022/12/07 08:18:06;;;;;;;5.85;2.53;;;;;;;2.40;91.77;101884.44;4921432;29;20052;-42
2022/12/07 08:20:34;;;;;;;5.10;2.42;;;;;;;2.38;91.80;101890.16;4925056;29;20083;-46
2022/12/07 08:23:01;;;;;;;5.10;2.53;;;;;;;2.38;91.27;101886.59;4933133;29;20402;-46
2022/12/07 08:25:28;;;;;;;3.55;2.13;;;;;;;2.36;91.68;101894.22;4927609;29;20067;-42
2022/12/07 08:27:55;;;;;;;5.90;2.55;;;;;;;2.35;91.78;101887.97;4930585;29;20062;-44
2022/12/07 08:30:22;;;;;;;4.28;1.83;;;;;;;2.31;91.49;101886.00;4928467;29;20052;-45
2022/12/07 08:32:49;;;;;;;5.85;2.67;;;;;;;2.26;91.54;101877.75;4930051;29;20083;-43
2022/12/07 08:35:17;;;;;;;4.88;2.25;;;;;;;2.21;91.31;101878.56;4922853;29;20055;-43
2022/12/07 08:37:44;;;;;;;4.20;1.77;;;;;;;2.14;91.02;101877.97;4929946;29;20054;-42
2022/12/07 08:40:15;;;;;;;5.07;2.00;;;;;;;2.10;91.09;101881.47;4930362;29;20375;-43
2022/12/07 08:42:51;;;;;;;5.43;2.58;;;;;;;2.05;91.24;101885.00;4927644;29;20409;-43
2022/12/07 08:45:19;;;;;;;5.93;2.42;;;;;;;2.03;91.14;101878.13;4929385;29;20043;-43
2022/12/07 08:48:05;;;;;;;7.72;3.00;;;;;;;1.96;91.31;101877.53;4927736;29;20508;-42
2022/12/07 08:50:33;;;;;;;12.15;2.80;;;;;;;1.94;91.00;101885.16;4931198;29;20039;-42
2022/12/07 08:53:00;;;;;;;7.00;2.30;;;;;;;1.90;91.24;101884.03;4930568;29;20054;-42
2022/12/07 08:55:29;;;;;;;7.85;2.90;;;;;;;1.82;91.27;101883.44;4925560;29;20118;-42
2022/12/07 08:57:58;;;;;;;4.07;2.20;;;;;;;1.82;90.99;101875.25;4929855;29;20127;-49
2022/12/07 09:00:26;;;;;;;4.38;1.73;;;;;;;1.78;90.74;101879.56;4911100;29;20206;-42
2022/12/07 09:02:54;;;;;;;7.78;2.83;;;;;;;1.74;90.88;101874.88;4912709;29;20051;-43
2022/12/07 09:05:21;;;;;;;5.85;2.17;;;;;;;1.74;90.71;101883.91;4929148;29;20055;-42
2022/12/07 09:07:52;;;;;;;3.30;2.20;;;;;;;1.72;90.89;101883.31;4927526;29;20051;-50
2022/12/07 09:10:19;;;;;;;7.43;2.67;;;;;;;1.72;90.69;101875.13;4928833;29;20048;-42
2022/12/07 09:12:46;;;;;;;6.85;2.25;;;;;;;1.72;90.79;101875.13;4928656;29;20052;-42
2022/12/07 09:15:12;;;;;;;5.38;2.10;;;;;;;1.71;91.10;101881.69;4931260;29;20050;-42
2022/12/07 09:17:39;;;;;;;3.80;2.05;;;;;;;1.70;91.02;101885.50;4931181;29;20042;-48
2022/12/07 09:20:06;;;;;;;6.75;2.10;;;;;;;1.71;90.89;101886.31;4927339;29;20070;-42
2022/12/07 09:22:33;;;;;;;3.83;2.10;;;;;;;1.69;90.63;101883.88;4928820;29;20051;-45
2022/12/07 09:25:00;;;;;;;5.47;2.22;;;;;;;1.71;90.85;101880.88;4929830;29;20048;-42
2022/12/07 09:27:28;;;;;;;5.55;2.40;;;;;;;1.70;90.85;101880.03;4929304;29;20056;-42
2022/12/07 09:29:55;;;;;;;3.33;2.13;;;;;;;1.71;90.76;101878.97;4931930;29;20052;-49
2022/12/07 09:32:22;;;;;;;8.35;2.50;;;;;;;1.73;90.58;101879.53;4928973;29;20129;-45
2022/12/07 09:34:49;;;;;;;11.50;3.60;;;;;;;1.70;91.01;101885.50;4934780;29;20059;-42
2022/12/07 09:37:16;;;;;;;3.67;2.38;;;;;;;1.68;90.72;101884.94;4935218;29;20090;-43
2022/12/07 09:39:43;;;;;;;9.60;2.92;;;;;;;1.66;90.52;101889.84;4916821;29;20054;-43
2022/12/07 09:42:44;;;;;;;8.35;4.53;;;;;;;1.66;90.62;101878.91;4936294;29;20541;-44
2022/12/07 09:45:18;;;;;;;4.82;2.42;;;;;;;1.66;90.85;101875.34;4922460;29;20068;-42
2022/12/07 09:47:45;;;;;;;7.20;2.80;;;;;;;1.68;90.66;101878.66;4933714;29;20063;-45
2022/12/07 09:50:17;;;;;;;10.02;4.45;;;;;;;1.69;90.91;101883.88;4933655;29;20043;-48
2022/12/07 09:52:47;;;;;;;10.02;2.83;;;;;;;1.70;90.71;101879.22;4933391;29;20044;-43
2022/12/07 09:55:19;;;;;;;6.70;3.15;;;;;;;1.72;90.71;101880.59;4924203;29;20119;-44
2022/12/07 09:57:46;;;;;;;9.80;3.80;;;;;;;1.75;90.52;101877.34;4933633;29;20064;-43
2022/12/07 10:00:16;;;;;;;4.90;3.50;;;;;;;1.75;90.71;101871.88;4916639;29;20045;-43
2022/12/07 10:02:56;;;;;;;7.03;3.85;;;;;;;1.77;90.76;101864.25;4930471;29;22097;-43
2022/12/07 10:05:35;;;;;;;5.88;2.97;;;;;;;1.79;90.87;101869.47;4935516;29;20055;-45
2022/12/07 10:08:04;;;;;;;6.80;3.28;;;;;;;1.82;90.92;101883.44;4934823;29;20581;-44
2022/12/07 10:10:34;;;;;;;14.18;6.00;;;;;;;1.87;90.75;101879.09;4936707;29;20628;-42
2022/12/07 10:13:08;;;;;;;14.85;6.10;;;;;;;1.90;90.91;101870.38;4933513;29;20048;-46
2022/12/07 10:15:48;;;;;;;9.52;4.55;;;;;;;1.92;90.85;101873.69;4934036;29;20043;-42
2022/12/07 10:18:35;;;;;;;11.18;4.13;;;;;;;1.93;90.48;101870.69;4932648;29;20051;-43
2022/12/07 10:21:11;;;;;;;11.82;4.68;;;;;;;1.95;90.22;101864.97;4933912;29;20505;-42
2022/12/07 10:23:41;;;;;;;12.27;4.93;;;;;;;1.96;90.48;101867.41;4936742;29;20062;-47
2022/12/07 10:26:33;;;;;;;15.68;4.95;;;;;;;1.96;90.27;101867.41;4935320;29;20419;-43
2022/12/07 10:29:14;;;;;;;8.85;4.07;;;;;;;1.97;90.31;101862.78;4933228;29;20146;-46
2022/12/07 10:31:41;;;;;;;10.82;4.30;;;;;;;2.01;90.48;101858.47;4932776;29;20062;-42
2022/12/07 10:34:26;;;;;;;14.77;4.15;;;;;;;2.01;90.45;101847.53;4918837;29;20413;-43
2022/12/07 10:37:16;;;;;;;11.95;5.63;;;;;;;2.05;90.70;101854.13;4935509;29;20393;-43
2022/12/07 10:39:56;;;;;;;7.07;3.55;;;;;;;2.09;90.53;101849.78;4936079;29;20409;-42
2022/12/07 10:42:29;;;;;;;9.90;3.92;;;;;;;2.12;90.90;101850.06;4936346;29;20047;-46
2022/12/07 10:45:15;;;;;;;;;;;;;;;2.16;90.70;101839.44;4933410;29;20102;-43
2022/12/07 10:48:04;;;;;;;6.57;3.00;;;;;;;2.21;90.45;101844.94;4932133;29;19926;-48
2022/12/07 10:51:21;;;;;;;10.85;3.65;;;;;;;2.24;90.37;101841.69;4929864;29;20047;-42
2022/12/07 10:54:00;;;;;;;7.40;3.65;;;;;;;2.28;90.65;101831.88;4882697;29;20094;-42
2022/12/07 10:56:42;;;;;;;6.57;3.05;;;;;;;2.31;90.48;101831.34;4923135;29;20087;-46
2022/12/07 10:59:22;;;;;;;4.60;2.85;;;;;;;2.34;90.53;101836.28;4927307;29;20110;-43
2022/12/07 11:02:20;;;;;;;15.23;4.80;;;;;;;2.39;90.43;101834.41;4932154;29;20398;-44
2022/12/07 11:05:41;;;;;;;12.18;4.78;;;;;;;2.43;90.48;101830.09;4932988;29;20047;-44
2022/12/07 11:08:53;;;;;;;9.18;3.60;;;;;;;2.47;90.40;101827.63;4932776;29;20062;-43
2022/12/07 11:11:49;;;;;;;10.55;3.47;;;;;;;2.53;90.49;101823.84;4928805;29;20422;-43
2022/12/07 11:14:31;;;;;;;14.65;4.13;;;;;;;2.58;90.67;101821.13;4930252;29;20047;-48
2022/12/07 11:17:25;;;;;;;10.18;4.88;;;;;;;2.64;90.27;101820.06;4929462;29;20050;-43
2022/12/07 11:19:52;;;;;;;9.30;3.72;;;;;;;2.69;90.58;101820.09;4933783;29;20070;-44
2022/12/07 11:22:35;;;;;;;6.10;3.55;;;;;;;2.73;90.34;101818.44;4929444;29;20055;-49
2022/12/07 11:25:30;;;;;;;8.07;4.30;;;;;;;2.76;90.46;101815.19;4931436;29;20044;-47
2022/12/07 11:28:38;;;;;;;9.45;3.85;;;;;;;2.81;90.48;101804.28;4932460;29;20047;-44
2022/12/07 11:31:05;;;;;;;10.32;3.55;;;;;;;2.89;90.25;101816.59;4909620;29;20378;-44
2022/12/07 11:33:35;;;;;;;7.55;2.92;;;;;;;2.93;90.44;101817.72;4933252;29;20075;-43
2022/12/07 11:36:36;;;;;;;6.80;2.50;;;;;;;3.00;90.42;101802.69;4933340;29;20075;-45
2022/12/07 11:39:16;;;;;;;8.93;1.23;;;;;;;3.06;90.50;101812.56;4926591;29;20051;-42
2022/12/07 11:41:44;;;;;;;3.78;1.30;;;;;;;3.14;90.10;101807.66;4928875;29;20048;-42
2022/12/07 11:44:33;;;;;;;1.98;1.00;;;;;;;3.22;90.02;101793.44;4929570;29;20055;-43
2022/12/07 11:47:08;;;;;;;5.18;1.08;;;;;;;3.29;90.02;101794.00;4930055;29;20070;-44
2022/12/07 11:49:56;;;;;;;3.05;1.17;;;;;;;3.35;89.48;101787.44;4931910;29;20048;-46
2022/12/07 11:52:47;;;;;;;5.68;1.00;;;;;;;3.40;89.79;101790.19;4925126;29;20044;-45
2022/12/07 11:55:51;;;;;;;4.97;1.67;;;;;;;3.43;89.64;101775.97;4918855;29;20570;-43